sensor_id;sensor_type;location;lat;lon;timestamp;pressure;altitude;pressure_sealevel;temperature;humidity
7264;BME280;3673;52.480;13.348;2023-04-29T00:00:44;100526.19;;;17.81;50.82
7264;BME280;3673;52.480;13.348;2023-04-29T00:03:14;100526.38;;;17.77;51.06
7264;BME280;3673;52.480;13.348;2023-04-29T00:05:40;100516.19;;;17.91;50.51
7264;BME280;3673;52.480;13.348;2023-04-29T00:08:07;100512.16;;;17.79;50.54
7264;BME280;3673;52.480;13.348;2023-04-29T00:10:34;100506.00;;;17.79;50.63
7264;BME280;3673;52.480;13.348;2023-04-29T00:13:01;100500.59;;;17.82;50.52
7264;BME280;3673;52.480;13.348;2023-04-29T00:15:27;100499.59;;;17.60;50.73
7264;BME280;3673;52.480;13.348;2023-04-29T00:17:56;100505.38;;;17.44;51.29
7264;BME280;3673;52.480;13.348;2023-04-29T00:20:23;100501.38;;;17.59;51.20
7264;BME280;3673;52.480;13.348;2023-04-29T00:22:49;100503.69;;;17.42;51.57
7264;BME280;3673;52.480;13.348;2023-04-29T00:25:16;100501.81;;;17.45;51.50
7264;BME280;3673;52.480;13.348;2023-04-29T00:27:43;100498.50;;;17.39;51.68
7264;BME280;3673;52.480;13.348;2023-04-29T00:30:10;100492.16;;;17.44;51.52
7264;BME280;3673;52.480;13.348;2023-04-29T00:32:37;100498.28;;;17.45;51.33
7264;BME280;3673;52.480;13.348;2023-04-29T00:35:06;100490.88;;;17.58;51.64
7264;BME280;3673;52.480;13.348;2023-04-29T00:37:33;100498.06;;;17.52;51.33
7264;BME280;3673;52.480;13.348;2023-04-29T00:40:00;100507.97;;;17.18;51.77
7264;BME280;3673;52.480;13.348;2023-04-29T00:42:28;100505.53;;;17.40;51.65
7264;BME280;3673;52.480;13.348;2023-04-29T00:44:57;100497.25;;;17.50;51.59
7264;BME280;3673;52.480;13.348;2023-04-29T00:47:24;100498.50;;;17.67;51.02
7264;BME280;3673;52.480;13.348;2023-04-29T00:49:51;100502.03;;;17.66;50.99
7264;BME280;3673;52.480;13.348;2023-04-29T00:52:19;100502.38;;;17.55;51.32
7264;BME280;3673;52.480;13.348;2023-04-29T00:54:47;100506.88;;;17.25;52.01
7264;BME280;3673;52.480;13.348;2023-04-29T00:57:14;100517.22;;;17.33;51.70
7264;BME280;3673;52.480;13.348;2023-04-29T00:59:41;100522.50;;;17.05;52.58
7264;BME280;3673;52.480;13.348;2023-04-29T01:02:10;100517.31;;;17.02;52.61
7264;BME280;3673;52.480;13.348;2023-04-29T01:04:37;100497.38;;;17.20;52.90
7264;BME280;3673;52.480;13.348;2023-04-29T01:07:13;100480.34;;;17.28;52.36
7264;BME280;3673;52.480;13.348;2023-04-29T01:09:56;100472.50;;;17.51;52.30
7264;BME280;3673;52.480;13.348;2023-04-29T01:12:33;100472.03;;;17.40;53.58
7264;BME280;3673;52.480;13.348;2023-04-29T01:15:11;100479.41;;;17.31;54.40
7264;BME280;3673;52.480;13.348;2023-04-29T01:17:47;100482.56;;;16.86;56.07
7264;BME280;3673;52.480;13.348;2023-04-29T01:20:16;100495.31;;;16.72;56.60
7264;BME280;3673;52.480;13.348;2023-04-29T01:22:43;100493.88;;;16.62;56.96
7264;BME280;3673;52.480;13.348;2023-04-29T01:25:11;100501.97;;;16.55;57.60
7264;BME280;3673;52.480;13.348;2023-04-29T01:27:46;100496.69;;;16.55;57.90
7264;BME280;3673;52.480;13.348;2023-04-29T01:30:26;100492.88;;;16.66;58.00
7264;BME280;3673;52.480;13.348;2023-04-29T01:33:02;100489.59;;;16.87;57.32
7264;BME280;3673;52.480;13.348;2023-04-29T01:35:44;100490.06;;;17.00;57.22
7264;BME280;3673;52.480;13.348;2023-04-29T01:38:22;100490.59;;;16.83;57.87
7264;BME280;3673;52.480;13.348;2023-04-29T01:41:03;100493.38;;;16.79;58.57
7264;BME280;3673;52.480;13.348;2023-04-29T01:43:36;100489.84;;;16.78;59.25
7264;BME280;3673;52.480;13.348;2023-04-29T01:46:05;100496.38;;;16.67;59.68
7264;BME280;3673;52.480;13.348;2023-04-29T01:48:34;100489.03;;;16.76;59.71
7264;BME280;3673;52.480;13.348;2023-04-29T01:51:02;100492.91;;;16.65;59.37
7264;BME280;3673;52.480;13.348;2023-04-29T01:53:30;100483.50;;;16.56;59.51
7264;BME280;3673;52.480;13.348;2023-04-29T01:55:58;100487.63;;;16.65;59.43
7264;BME280;3673;52.480;13.348;2023-04-29T01:58:25;100487.28;;;16.46;60.05
7264;BME280;3673;52.480;13.348;2023-04-29T02:00:52;100487.28;;;16.46;59.86
7264;BME280;3673;52.480;13.348;2023-04-29T02:03:20;100479.69;;;16.65;59.96
7264;BME280;3673;52.480;13.348;2023-04-29T02:05:46;100484.22;;;16.90;59.10
7264;BME280;3673;52.480;13.348;2023-04-29T02:08:15;100488.44;;;16.96;58.63
7264;BME280;3673;52.480;13.348;2023-04-29T02:10:51;100484.41;;;16.84;58.98
7264;BME280;3673;52.480;13.348;2023-04-29T02:13:20;100478.44;;;16.78;59.49
7264;BME280;3673;52.480;13.348;2023-04-29T02:15:47;100477.00;;;16.95;58.73
7264;BME280;3673;52.480;13.348;2023-04-29T02:18:14;100477.47;;;16.80;59.34
7264;BME280;3673;52.480;13.348;2023-04-29T02:20:41;100485.50;;;16.46;60.06
7264;BME280;3673;52.480;13.348;2023-04-29T02:23:07;100482.19;;;16.38;60.58
7264;BME280;3673;52.480;13.348;2023-04-29T02:25:34;100466.69;;;16.59;60.22
7264;BME280;3673;52.480;13.348;2023-04-29T02:28:01;100461.25;;;16.63;60.50
7264;BME280;3673;52.480;13.348;2023-04-29T02:30:29;100467.69;;;16.84;60.27
7264;BME280;3673;52.480;13.348;2023-04-29T02:32:56;100462.06;;;16.65;60.46
7264;BME280;3673;52.480;13.348;2023-04-29T02:35:23;100464.25;;;16.20;61.59
7264;BME280;3673;52.480;13.348;2023-04-29T02:37:49;100475.91;;;15.81;62.96
7264;BME280;3673;52.480;13.348;2023-04-29T02:40:16;100485.84;;;16.04;62.92
7264;BME280;3673;52.480;13.348;2023-04-29T02:42:43;100480.03;;;16.22;62.36
7264;BME280;3673;52.480;13.348;2023-04-29T02:45:10;100478.66;;;16.09;62.60
7264;BME280;3673;52.480;13.348;2023-04-29T02:47:38;100476.72;;;16.46;61.80
7264;BME280;3673;52.480;13.348;2023-04-29T02:50:06;100479.22;;;16.51;61.42
7264;BME280;3673;52.480;13.348;2023-04-29T02:52:33;100468.75;;;16.47;61.24
7264;BME280;3673;52.480;13.348;2023-04-29T02:55:00;100472.41;;;16.42;61.54
7264;BME280;3673;52.480;13.348;2023-04-29T02:57:27;100467.88;;;16.47;61.53
7264;BME280;3673;52.480;13.348;2023-04-29T02:59:55;100469.47;;;16.53;61.77
7264;BME280;3673;52.480;13.348;2023-04-29T03:02:22;100462.13;;;16.64;61.35
7264;BME280;3673;52.480;13.348;2023-04-29T03:04:50;100459.97;;;16.76;61.38
7264;BME280;3673;52.480;13.348;2023-04-29T03:07:16;100464.97;;;16.85;60.56
7264;BME280;3673;52.480;13.348;2023-04-29T03:09:43;100463.97;;;16.89;60.27
7264;BME280;3673;52.480;13.348;2023-04-29T03:12:10;100469.44;;;16.54;61.25
7264;BME280;3673;52.480;13.348;2023-04-29T03:14:37;100465.66;;;16.64;61.32
7264;BME280;3673;52.480;13.348;2023-04-29T03:17:04;100459.41;;;16.67;60.92
7264;BME280;3673;52.480;13.348;2023-04-29T03:19:31;100467.00;;;16.46;61.67
7264;BME280;3673;52.480;13.348;2023-04-29T03:21:59;100467.72;;;16.22;62.47
7264;BME280;3673;52.480;13.348;2023-04-29T03:24:25;100459.88;;;16.19;62.50
7264;BME280;3673;52.480;13.348;2023-04-29T03:26:52;100456.47;;;16.45;62.63
7264;BME280;3673;52.480;13.348;2023-04-29T03:29:19;100451.84;;;16.53;62.22
7264;BME280;3673;52.480;13.348;2023-04-29T03:31:46;100456.88;;;16.62;61.75
7264;BME280;3673;52.480;13.348;2023-04-29T03:34:12;100452.66;;;16.57;62.12
7264;BME280;3673;52.480;13.348;2023-04-29T03:36:39;100449.75;;;16.66;62.09
7264;BME280;3673;52.480;13.348;2023-04-29T03:39:07;100453.72;;;16.79;61.86
7264;BME280;3673;52.480;13.348;2023-04-29T03:41:34;100454.31;;;16.61;62.51
7264;BME280;3673;52.480;13.348;2023-04-29T03:44:01;100453.94;;;16.73;62.20
7264;BME280;3673;52.480;13.348;2023-04-29T03:46:28;100447.78;;;16.72;62.15
7264;BME280;3673;52.480;13.348;2023-04-29T03:48:55;100450.31;;;16.75;62.42
7264;BME280;3673;52.480;13.348;2023-04-29T03:51:22;100451.47;;;16.67;62.55
7264;BME280;3673;52.480;13.348;2023-04-29T03:53:49;100454.72;;;16.75;62.20
7264;BME280;3673;52.480;13.348;2023-04-29T03:56:18;100448.88;;;16.93;61.91
7264;BME280;3673;52.480;13.348;2023-04-29T03:58:45;100455.94;;;16.92;61.93
7264;BME280;3673;52.480;13.348;2023-04-29T04:01:12;100448.78;;;16.96;61.80
7264;BME280;3673;52.480;13.348;2023-04-29T04:03:38;100456.94;;;16.88;62.18
7264;BME280;3673;52.480;13.348;2023-04-29T04:06:07;100461.19;;;16.65;62.98
7264;BME280;3673;52.480;13.348;2023-04-29T04:08:34;100469.03;;;16.97;62.09
7264;BME280;3673;52.480;13.348;2023-04-29T04:11:01;100467.50;;;17.18;61.44
7264;BME280;3673;52.480;13.348;2023-04-29T04:13:30;100462.78;;;16.99;62.09
7264;BME280;3673;52.480;13.348;2023-04-29T04:15:57;100466.28;;;17.00;62.01
7264;BME280;3673;52.480;13.348;2023-04-29T04:18:24;100480.84;;;17.13;61.94
7264;BME280;3673;52.480;13.348;2023-04-29T04:20:50;100466.06;;;17.08;61.92
7264;BME280;3673;52.480;13.348;2023-04-29T04:23:17;100472.19;;;17.08;61.77
7264;BME280;3673;52.480;13.348;2023-04-29T04:25:45;100469.22;;;16.91;62.49
7264;BME280;3673;52.480;13.348;2023-04-29T04:28:12;100465.97;;;16.81;62.71
7264;BME280;3673;52.480;13.348;2023-04-29T04:30:40;100469.38;;;16.85;62.89
7264;BME280;3673;52.480;13.348;2023-04-29T04:33:08;100469.94;;;16.96;62.66
7264;BME280;3673;52.480;13.348;2023-04-29T04:35:35;100464.88;;;16.88;62.63
7264;BME280;3673;52.480;13.348;2023-04-29T04:38:02;100469.56;;;16.80;63.29
7264;BME280;3673;52.480;13.348;2023-04-29T04:40:28;100466.63;;;16.89;63.27
7264;BME280;3673;52.480;13.348;2023-04-29T04:42:55;100470.88;;;16.66;63.95
7264;BME280;3673;52.480;13.348;2023-04-29T04:45:22;100475.03;;;16.74;63.92
7264;BME280;3673;52.480;13.348;2023-04-29T04:47:50;100468.63;;;16.81;63.76
7264;BME280;3673;52.480;13.348;2023-04-29T04:50:17;100465.81;;;16.58;64.38
7264;BME280;3673;52.480;13.348;2023-04-29T04:52:43;100473.41;;;16.69;64.71
7264;BME280;3673;52.480;13.348;2023-04-29T04:55:10;100472.28;;;16.77;64.75
7264;BME280;3673;52.480;13.348;2023-04-29T04:57:37;100477.19;;;16.89;64.56
7264;BME280;3673;52.480;13.348;2023-04-29T05:00:06;100477.28;;;16.86;64.55
7264;BME280;3673;52.480;13.348;2023-04-29T05:02:33;100485.06;;;16.62;65.36
7264;BME280;3673;52.480;13.348;2023-04-29T05:05:01;100480.06;;;16.82;64.94
7264;BME280;3673;52.480;13.348;2023-04-29T05:07:28;100483.19;;;16.67;65.35
7264;BME280;3673;52.480;13.348;2023-04-29T05:09:55;100480.38;;;16.71;65.31
7264;BME280;3673;52.480;13.348;2023-04-29T05:12:22;100473.59;;;16.63;65.84
7264;BME280;3673;52.480;13.348;2023-04-29T05:14:52;100486.50;;;16.73;65.59
7264;BME280;3673;52.480;13.348;2023-04-29T05:17:18;100484.81;;;16.71;65.58
7264;BME280;3673;52.480;13.348;2023-04-29T05:19:45;100489.19;;;16.99;64.73
7264;BME280;3673;52.480;13.348;2023-04-29T05:22:13;100487.72;;;16.91;64.88
7264;BME280;3673;52.480;13.348;2023-04-29T05:24:40;100488.81;;;16.84;65.21
7264;BME280;3673;52.480;13.348;2023-04-29T05:27:07;100487.19;;;17.08;64.79
7264;BME280;3673;52.480;13.348;2023-04-29T05:29:34;100479.19;;;16.81;65.34
7264;BME280;3673;52.480;13.348;2023-04-29T05:32:01;100494.09;;;16.84;65.54
7264;BME280;3673;52.480;13.348;2023-04-29T05:34:27;100495.56;;;16.94;65.37
7264;BME280;3673;52.480;13.348;2023-04-29T05:36:54;100493.44;;;16.77;65.98
7264;BME280;3673;52.480;13.348;2023-04-29T05:39:23;100489.44;;;16.92;65.52
7264;BME280;3673;52.480;13.348;2023-04-29T05:41:51;100497.22;;;16.96;65.75
7264;BME280;3673;52.480;13.348;2023-04-29T05:44:18;100501.22;;;17.10;65.53
7264;BME280;3673;52.480;13.348;2023-04-29T05:46:44;100500.88;;;17.20;65.17
7264;BME280;3673;52.480;13.348;2023-04-29T05:49:13;100499.56;;;17.06;65.73
7264;BME280;3673;52.480;13.348;2023-04-29T05:51:40;100510.16;;;16.78;66.74
7264;BME280;3673;52.480;13.348;2023-04-29T05:54:07;100505.84;;;16.74;66.76
7264;BME280;3673;52.480;13.348;2023-04-29T05:56:35;100511.81;;;17.08;65.90
7264;BME280;3673;52.480;13.348;2023-04-29T05:59:02;100505.06;;;16.99;66.18
7264;BME280;3673;52.480;13.348;2023-04-29T06:01:28;100507.72;;;16.98;66.18
7264;BME280;3673;52.480;13.348;2023-04-29T06:03:55;100514.56;;;17.05;65.92
7264;BME280;3673;52.480;13.348;2023-04-29T06:06:22;100511.06;;;17.05;66.06
7264;BME280;3673;52.480;13.348;2023-04-29T06:08:49;100506.28;;;16.88;66.90
7264;BME280;3673;52.480;13.348;2023-04-29T06:11:16;100521.88;;;17.25;65.55
7264;BME280;3673;52.480;13.348;2023-04-29T06:13:44;100517.63;;;16.91;66.22
7264;BME280;3673;52.480;13.348;2023-04-29T06:16:11;100519.09;;;17.29;65.46
7264;BME280;3673;52.480;13.348;2023-04-29T06:18:38;100523.41;;;17.32;65.51
7264;BME280;3673;52.480;13.348;2023-04-29T06:21:05;100528.63;;;17.07;66.03
7264;BME280;3673;52.480;13.348;2023-04-29T06:23:32;100523.22;;;17.10;66.54
7264;BME280;3673;52.480;13.348;2023-04-29T06:25:59;100524.72;;;17.19;65.84
7264;BME280;3673;52.480;13.348;2023-04-29T06:28:26;100529.34;;;17.40;65.83
7264;BME280;3673;52.480;13.348;2023-04-29T06:30:55;100529.53;;;16.77;66.86
7264;BME280;3673;52.480;13.348;2023-04-29T06:33:22;100535.78;;;16.74;67.29
7264;BME280;3673;52.480;13.348;2023-04-29T06:35:49;100537.66;;;16.71;67.23
7264;BME280;3673;52.480;13.348;2023-04-29T06:38:16;100536.00;;;16.67;67.68
7264;BME280;3673;52.480;13.348;2023-04-29T06:40:43;100539.25;;;16.76;67.05
7264;BME280;3673;52.480;13.348;2023-04-29T06:43:10;100548.91;;;16.77;67.70
7264;BME280;3673;52.480;13.348;2023-04-29T06:45:37;100548.75;;;16.82;66.88
7264;BME280;3673;52.480;13.348;2023-04-29T06:48:05;100549.06;;;16.71;67.42
7264;BME280;3673;52.480;13.348;2023-04-29T06:50:32;100557.13;;;16.67;67.53
7264;BME280;3673;52.480;13.348;2023-04-29T06:52:59;100559.03;;;16.62;67.53
7264;BME280;3673;52.480;13.348;2023-04-29T06:55:26;100562.75;;;16.85;67.47
7264;BME280;3673;52.480;13.348;2023-04-29T06:57:52;100565.72;;;17.04;66.24
7264;BME280;3673;52.480;13.348;2023-04-29T07:00:19;100558.47;;;16.49;67.02
7264;BME280;3673;52.480;13.348;2023-04-29T07:02:47;100567.72;;;16.34;67.68
7264;BME280;3673;52.480;13.348;2023-04-29T07:05:15;100562.34;;;16.68;66.58
7264;BME280;3673;52.480;13.348;2023-04-29T07:07:42;100558.22;;;16.60;66.99
7264;BME280;3673;52.480;13.348;2023-04-29T07:10:09;100567.16;;;16.85;66.53
7264;BME280;3673;52.480;13.348;2023-04-29T07:12:36;100568.88;;;16.87;66.36
7264;BME280;3673;52.480;13.348;2023-04-29T07:15:04;100581.59;;;16.73;66.46
7264;BME280;3673;52.480;13.348;2023-04-29T07:17:31;100585.50;;;16.60;66.94
7264;BME280;3673;52.480;13.348;2023-04-29T07:19:58;100599.13;;;16.76;66.59
7264;BME280;3673;52.480;13.348;2023-04-29T07:22:26;100601.59;;;16.17;67.18
7264;BME280;3673;52.480;13.348;2023-04-29T07:24:53;100597.25;;;16.81;65.83
7264;BME280;3673;52.480;13.348;2023-04-29T07:27:20;100597.84;;;16.60;65.85
7264;BME280;3673;52.480;13.348;2023-04-29T07:29:47;100592.78;;;16.81;65.12
7264;BME280;3673;52.480;13.348;2023-04-29T07:32:14;100600.28;;;16.67;65.01
7264;BME280;3673;52.480;13.348;2023-04-29T07:34:41;100600.69;;;16.83;65.05
7264;BME280;3673;52.480;13.348;2023-04-29T07:37:08;100613.00;;;16.84;64.66
7264;BME280;3673;52.480;13.348;2023-04-29T07:39:36;100613.09;;;16.81;64.40
7264;BME280;3673;52.480;13.348;2023-04-29T07:42:03;100619.91;;;16.88;63.58
7264;BME280;3673;52.480;13.348;2023-04-29T07:44:30;100618.88;;;16.93;63.30
7264;BME280;3673;52.480;13.348;2023-04-29T07:46:57;100625.66;;;16.71;63.50
7264;BME280;3673;52.480;13.348;2023-04-29T07:49:23;100626.75;;;16.95;63.12
7264;BME280;3673;52.480;13.348;2023-04-29T07:51:51;100632.72;;;17.02;62.93
7264;BME280;3673;52.480;13.348;2023-04-29T07:54:18;100640.78;;;16.32;64.73
7264;BME280;3673;52.480;13.348;2023-04-29T07:56:47;100648.50;;;16.06;65.36
7264;BME280;3673;52.480;13.348;2023-04-29T07:59:14;100645.06;;;16.04;65.55
7264;BME280;3673;52.480;13.348;2023-04-29T08:01:41;100657.03;;;16.17;65.56
7264;BME280;3673;52.480;13.348;2023-04-29T08:04:08;100653.47;;;16.52;64.79
7264;BME280;3673;52.480;13.348;2023-04-29T08:06:35;100664.28;;;16.77;64.43
7264;BME280;3673;52.480;13.348;2023-04-29T08:09:02;100669.47;;;16.47;64.35
7264;BME280;3673;52.480;13.348;2023-04-29T08:11:29;100673.06;;;16.08;65.06
7264;BME280;3673;52.480;13.348;2023-04-29T08:13:57;100677.97;;;15.88;65.77
7264;BME280;3673;52.480;13.348;2023-04-29T08:16:24;100685.59;;;16.35;64.25
7264;BME280;3673;52.480;13.348;2023-04-29T08:18:51;100692.09;;;16.22;64.46
7264;BME280;3673;52.480;13.348;2023-04-29T08:21:19;100690.69;;;16.43;64.10
7264;BME280;3673;52.480;13.348;2023-04-29T08:23:45;100692.22;;;16.18;64.68
7264;BME280;3673;52.480;13.348;2023-04-29T08:26:12;100706.66;;;16.72;63.46
7264;BME280;3673;52.480;13.348;2023-04-29T08:28:39;100706.66;;;16.74;63.09
7264;BME280;3673;52.480;13.348;2023-04-29T08:31:07;100714.22;;;16.87;62.19
7264;BME280;3673;52.480;13.348;2023-04-29T08:33:41;100725.25;;;16.69;62.19
7264;BME280;3673;52.480;13.348;2023-04-29T08:36:08;100729.72;;;16.67;62.09
7264;BME280;3673;52.480;13.348;2023-04-29T08:38:35;100718.38;;;16.64;62.13
7264;BME280;3673;52.480;13.348;2023-04-29T08:41:02;100736.44;;;16.79;61.59
7264;BME280;3673;52.480;13.348;2023-04-29T08:43:29;100733.84;;;16.77;61.33
7264;BME280;3673;52.480;13.348;2023-04-29T08:45:58;100735.53;;;16.44;62.41
7264;BME280;3673;52.480;13.348;2023-04-29T08:48:26;100742.97;;;16.29;62.98
7264;BME280;3673;52.480;13.348;2023-04-29T08:50:54;100735.44;;;16.49;62.09
7264;BME280;3673;52.480;13.348;2023-04-29T08:53:22;100746.72;;;16.57;62.34
7264;BME280;3673;52.480;13.348;2023-04-29T08:55:50;100748.75;;;16.80;61.32
7264;BME280;3673;52.480;13.348;2023-04-29T08:58:17;100757.31;;;16.89;60.84
7264;BME280;3673;52.480;13.348;2023-04-29T09:00:44;100770.59;;;17.19;59.99
7264;BME280;3673;52.480;13.348;2023-04-29T09:03:16;100766.25;;;17.16;59.56
7264;BME280;3673;52.480;13.348;2023-04-29T09:05:47;100765.19;;;17.23;60.13
7264;BME280;3673;52.480;13.348;2023-04-29T09:08:15;100785.31;;;16.96;60.08
7264;BME280;3673;52.480;13.348;2023-04-29T09:10:42;100784.75;;;17.18;60.04
7264;BME280;3673;52.480;13.348;2023-04-29T09:13:23;100782.88;;;17.52;58.97
7264;BME280;3673;52.480;13.348;2023-04-29T09:15:50;100786.13;;;17.92;56.88
7264;BME280;3673;52.480;13.348;2023-04-29T09:18:41;100791.91;;;17.76;56.85
7264;BME280;3673;52.480;13.348;2023-04-29T09:21:16;100785.22;;;17.93;56.78
7264;BME280;3673;52.480;13.348;2023-04-29T09:23:43;100787.31;;;17.82;56.78
7264;BME280;3673;52.480;13.348;2023-04-29T09:26:11;100799.03;;;17.74;56.88
7264;BME280;3673;52.480;13.348;2023-04-29T09:28:38;100804.25;;;17.77;57.35
7264;BME280;3673;52.480;13.348;2023-04-29T09:31:08;100808.38;;;17.55;57.42
7264;BME280;3673;52.480;13.348;2023-04-29T09:33:55;100812.19;;;17.77;57.11
7264;BME280;3673;52.480;13.348;2023-04-29T09:36:40;100821.38;;;17.64;56.66
7264;BME280;3673;52.480;13.348;2023-04-29T09:39:12;100822.63;;;17.50;56.95
7264;BME280;3673;52.480;13.348;2023-04-29T09:41:41;100833.53;;;17.71;57.01
7264;BME280;3673;52.480;13.348;2023-04-29T09:44:09;100829.16;;;17.37;58.26
7264;BME280;3673;52.480;13.348;2023-04-29T09:46:36;100837.56;;;17.51;57.39
7264;BME280;3673;52.480;13.348;2023-04-29T09:49:05;100840.16;;;17.53;58.08
7264;BME280;3673;52.480;13.348;2023-04-29T09:51:55;100839.47;;;18.37;57.29
7264;BME280;3673;52.480;13.348;2023-04-29T09:54:24;100846.50;;;18.92;54.50
7264;BME280;3673;52.480;13.348;2023-04-29T09:56:53;100846.84;;;18.82;53.76
7264;BME280;3673;52.480;13.348;2023-04-29T09:59:21;100851.16;;;19.37;53.26
7264;BME280;3673;52.480;13.348;2023-04-29T10:01:50;100851.69;;;19.48;52.25
7264;BME280;3673;52.480;13.348;2023-04-29T10:04:19;100859.91;;;19.88;51.36
7264;BME280;3673;52.480;13.348;2023-04-29T10:06:49;100861.34;;;19.74;52.38
7264;BME280;3673;52.480;13.348;2023-04-29T10:09:18;100873.84;;;19.21;53.08
7264;BME280;3673;52.480;13.348;2023-04-29T10:11:48;100873.28;;;19.11;53.35
7264;BME280;3673;52.480;13.348;2023-04-29T10:14:17;100877.47;;;19.44;52.76
7264;BME280;3673;52.480;13.348;2023-04-29T10:16:48;100879.81;;;19.52;52.63
7264;BME280;3673;52.480;13.348;2023-04-29T10:19:24;100881.31;;;19.61;52.01
7264;BME280;3673;52.480;13.348;2023-04-29T10:21:53;100884.38;;;19.73;51.24
7264;BME280;3673;52.480;13.348;2023-04-29T10:24:25;100877.53;;;18.63;52.97
7264;BME280;3673;52.480;13.348;2023-04-29T10:26:52;100889.72;;;18.11;54.97
7264;BME280;3673;52.480;13.348;2023-04-29T10:29:24;100885.09;;;17.55;56.19
7264;BME280;3673;52.480;13.348;2023-04-29T10:31:53;100899.13;;;17.58;56.81
7264;BME280;3673;52.480;13.348;2023-04-29T10:34:24;100893.94;;;18.17;55.10
7264;BME280;3673;52.480;13.348;2023-04-29T10:36:54;100899.81;;;18.57;54.53
7264;BME280;3673;52.480;13.348;2023-04-29T10:39:41;100902.97;;;18.10;54.64
7264;BME280;3673;52.480;13.348;2023-04-29T10:42:20;100905.97;;;18.58;53.89
7264;BME280;3673;52.480;13.348;2023-04-29T10:45:20;100905.56;;;18.70;53.10
7264;BME280;3673;52.480;13.348;2023-04-29T10:48:14;100911.31;;;18.84;52.94
7264;BME280;3673;52.480;13.348;2023-04-29T10:51:02;100915.44;;;18.35;52.68
7264;BME280;3673;52.480;13.348;2023-04-29T10:53:30;100915.41;;;18.37;53.65
7264;BME280;3673;52.480;13.348;2023-04-29T10:56:05;100922.19;;;17.19;55.63
7264;BME280;3673;52.480;13.348;2023-04-29T10:58:41;100920.13;;;17.96;55.54
7264;BME280;3673;52.480;13.348;2023-04-29T11:01:14;100922.28;;;18.13;53.88
7264;BME280;3673;52.480;13.348;2023-04-29T11:03:52;100921.63;;;18.05;53.88
7264;BME280;3673;52.480;13.348;2023-04-29T11:06:26;100923.84;;;18.20;53.44
7264;BME280;3673;52.480;13.348;2023-04-29T11:09:09;100932.34;;;17.70;54.23
7264;BME280;3673;52.480;13.348;2023-04-29T11:11:43;100927.81;;;17.41;55.00
7264;BME280;3673;52.480;13.348;2023-04-29T11:14:11;100936.03;;;17.64;54.73
7264;BME280;3673;52.480;13.348;2023-04-29T11:16:46;100930.22;;;18.13;52.92
7264;BME280;3673;52.480;13.348;2023-04-29T11:19:15;100941.03;;;18.36;52.01
7264;BME280;3673;52.480;13.348;2023-04-29T11:21:44;100938.19;;;18.13;52.80
7264;BME280;3673;52.480;13.348;2023-04-29T11:24:12;100939.94;;;17.82;52.46
7264;BME280;3673;52.480;13.348;2023-04-29T11:26:42;100948.66;;;17.85;52.95
7264;BME280;3673;52.480;13.348;2023-04-29T11:29:10;100952.97;;;17.57;53.51
7264;BME280;3673;52.480;13.348;2023-04-29T11:31:37;100957.47;;;17.52;53.22
7264;BME280;3673;52.480;13.348;2023-04-29T11:34:05;100951.47;;;17.45;53.51
7264;BME280;3673;52.480;13.348;2023-04-29T11:36:33;100957.88;;;18.03;52.63
7264;BME280;3673;52.480;13.348;2023-04-29T11:39:01;100957.19;;;17.96;52.19
7264;BME280;3673;52.480;13.348;2023-04-29T11:41:29;100956.22;;;18.61;51.69
7264;BME280;3673;52.480;13.348;2023-04-29T11:43:58;100969.94;;;18.44;52.06
7264;BME280;3673;52.480;13.348;2023-04-29T11:46:30;100968.13;;;18.75;50.57
7264;BME280;3673;52.480;13.348;2023-04-29T11:48:57;100960.81;;;19.11;49.31
7264;BME280;3673;52.480;13.348;2023-04-29T11:51:25;100968.50;;;19.19;49.08
7264;BME280;3673;52.480;13.348;2023-04-29T11:53:53;100979.88;;;18.36;51.26
7264;BME280;3673;52.480;13.348;2023-04-29T11:56:23;100981.06;;;19.14;49.85
7264;BME280;3673;52.480;13.348;2023-04-29T11:58:53;100977.94;;;19.80;49.17
7264;BME280;3673;52.480;13.348;2023-04-29T12:01:22;100977.53;;;20.15;48.29
7264;BME280;3673;52.480;13.348;2023-04-29T12:03:50;100982.22;;;20.33;48.18
7264;BME280;3673;52.480;13.348;2023-04-29T12:06:17;100983.69;;;20.17;46.91
7264;BME280;3673;52.480;13.348;2023-04-29T12:08:46;100982.72;;;19.95;46.45
7264;BME280;3673;52.480;13.348;2023-04-29T12:11:13;100994.63;;;18.75;48.94
7264;BME280;3673;52.480;13.348;2023-04-29T12:13:40;100991.22;;;18.72;49.93
7264;BME280;3673;52.480;13.348;2023-04-29T12:16:07;100991.38;;;18.67;49.50
7264;BME280;3673;52.480;13.348;2023-04-29T12:18:37;100993.47;;;17.59;52.28
7264;BME280;3673;52.480;13.348;2023-04-29T12:21:04;100997.22;;;17.50;52.94
7264;BME280;3673;52.480;13.348;2023-04-29T12:23:31;101000.72;;;17.85;52.49
7264;BME280;3673;52.480;13.348;2023-04-29T12:25:59;100995.03;;;18.62;51.16
7264;BME280;3673;52.480;13.348;2023-04-29T12:28:27;101009.56;;;19.07;49.04
7264;BME280;3673;52.480;13.348;2023-04-29T12:30:55;101001.94;;;18.06;51.53
7264;BME280;3673;52.480;13.348;2023-04-29T12:33:26;101009.38;;;17.91;51.72
7264;BME280;3673;52.480;13.348;2023-04-29T12:35:56;101008.47;;;17.92;52.02
7264;BME280;3673;52.480;13.348;2023-04-29T12:38:25;101015.63;;;18.83;50.26
7264;BME280;3673;52.480;13.348;2023-04-29T12:40:53;101012.09;;;19.38;48.47
7264;BME280;3673;52.480;13.348;2023-04-29T12:43:25;101011.28;;;19.36;48.79
7264;BME280;3673;52.480;13.348;2023-04-29T12:45:54;101012.50;;;19.78;48.01
7264;BME280;3673;52.480;13.348;2023-04-29T12:48:29;101007.06;;;19.57;48.01
7264;BME280;3673;52.480;13.348;2023-04-29T12:50:58;101011.38;;;19.85;47.70
7264;BME280;3673;52.480;13.348;2023-04-29T12:53:26;101015.41;;;19.97;47.02
7264;BME280;3673;52.480;13.348;2023-04-29T12:55:54;101019.81;;;19.72;46.69
7264;BME280;3673;52.480;13.348;2023-04-29T12:58:21;101019.69;;;19.50;47.61
7264;BME280;3673;52.480;13.348;2023-04-29T13:00:48;101013.38;;;19.79;46.39
7264;BME280;3673;52.480;13.348;2023-04-29T13:03:15;101023.09;;;19.26;47.80
7264;BME280;3673;52.480;13.348;2023-04-29T13:05:42;101027.31;;;19.61;46.98
7264;BME280;3673;52.480;13.348;2023-04-29T13:08:10;101017.91;;;19.50;47.20